Time;durP1;ratioP1;P1;durP2;ratioP2;P2;SDS_P1;SDS_P2;PMS_P1;PMS_P2;Temp;Humidity;BMP_temperature;BMP_pressure;BME280_temperature;BME280_humidity;BME280_pressure;Samples;Min_cycle;Max_cycle;Signal;HPM_P1;HPM_P2
2021/12/10 00:00:18;;;;;;;8.43;2.77;;;6.90;81.00;6.90;95205.00;;;;5072308;28;20572;-85
2021/12/10 00:02:48;;;;;;;2.20;2.00;;;6.90;80.80;6.90;95201.00;;;;5073645;28;20284;-85
2021/12/10 00:05:20;;;;;;;2.50;2.27;;;6.90;80.70;6.90;95189.00;;;;5089279;28;20210;-85
2021/12/10 00:07:48;;;;;;;2.53;2.33;;;6.90;80.70;6.90;95184.00;;;;5104993;28;20214;-85
2021/12/10 00:10:20;;;;;;;3.83;2.30;;;6.90;80.60;6.90;95172.00;;;;5113594;28;20296;-84
2021/12/10 00:12:51;;;;;;;2.43;2.13;;;6.90;80.50;6.90;95171.00;;;;5113491;28;20209;-85
2021/12/10 00:15:21;;;;;;;2.87;2.17;;;6.90;80.60;7.00;95174.00;;;;5113919;28;20202;-85
2021/12/10 00:17:52;;;;;;;3.80;2.30;;;6.90;80.80;7.00;95163.00;;;;5088709;28;20234;-86
2021/12/10 00:20:23;;;;;;;4.80;2.30;;;6.90;80.90;7.00;95161.00;;;;5092057;28;20278;-82
2021/12/10 00:23:07;;;;;;;4.23;2.20;;;6.90;80.80;7.00;95162.00;;;;5113748;28;20205;-85
2021/12/10 00:25:40;;;;;;;3.40;1.80;;;7.00;81.10;7.00;95161.00;;;;5113650;28;20208;-85
2021/12/10 00:28:17;;;;;;;2.17;1.97;;;7.00;81.00;7.10;95157.00;;;;5100142;28;20226;-84
2021/12/10 00:31:00;;;;;;;4.13;1.87;;;7.00;80.90;7.10;95148.00;;;;5093505;28;20202;-85
2021/12/10 00:33:34;;;;;;;4.97;2.00;;;7.00;80.90;7.10;95136.00;;;;5093367;28;20660;-87
2021/12/10 00:36:01;;;;;;;3.43;1.70;;;7.00;81.00;7.10;95144.00;;;;5088035;28;20189;-86
2021/12/10 00:38:29;;;;;;;3.77;1.90;;;7.00;80.90;7.10;95144.00;;;;5096405;28;20223;-86
2021/12/10 00:40:57;;;;;;;3.47;1.70;;;7.00;80.70;7.10;95139.00;;;;5093298;28;20199;-86
2021/12/10 00:43:24;;;;;;;3.77;1.60;;;7.00;80.80;7.10;95131.00;;;;5106411;28;20193;-86
2021/12/10 00:45:52;;;;;;;1.97;1.73;;;7.00;80.70;7.00;95130.00;;;;5113598;28;20259;-86
2021/12/10 00:48:19;;;;;;;2.43;1.57;;;7.00;81.00;7.00;95124.00;;;;5104262;28;20275;-85
2021/12/10 00:50:55;;;;;;;5.03;2.10;;;7.00;80.90;7.00;95119.00;;;;5083090;28;20210;-86
2021/12/10 00:53:24;;;;;;;5.50;2.20;;;7.00;80.50;7.00;95110.00;;;;5093651;28;20286;-86
2021/12/10 00:55:52;;;;;;;3.90;1.90;;;7.00;80.60;7.00;95110.00;;;;5093111;28;20227;-86
2021/12/10 00:58:21;;;;;;;2.80;1.93;;;7.00;81.20;7.00;95104.00;;;;5109895;28;20250;-86
2021/12/10 01:00:59;;;;;;;1.97;1.70;;;7.00;80.50;7.10;95103.00;;;;5109869;28;20279;-86
2021/12/10 01:03:32;;;;;;;2.50;1.67;;;7.00;80.50;7.10;95099.00;;;;5075531;28;20199;-87
2021/12/10 01:06:07;;;;;;;2.80;1.80;;;7.00;80.60;7.10;95094.00;;;;5090162;28;20198;-86
2021/12/10 01:08:37;;;;;;;2.90;1.63;;;7.00;80.50;7.10;95082.00;;;;5103649;28;20214;-85
2021/12/10 01:11:10;;;;;;;2.80;1.40;;;7.00;80.50;7.10;95082.00;;;;5097247;28;20191;-87
2021/12/10 01:13:42;;;;;;;3.07;1.90;;;7.00;80.20;7.10;95077.00;;;;5098261;28;20278;-86
2021/12/10 01:23:42;;;;;;;5.63;1.83;;;7.00;80.20;7.10;95070.00;;;;5097082;28;20694;-85
2021/12/10 01:25:03;;;;;;;1.87;1.43;;;7.00;80.40;7.10;95061.00;;;;5099489;28;20194;-86
2021/12/10 01:27:36;;;;;;;1.97;1.70;;;7.00;80.50;7.10;95048.00;;;;5096644;28;20298;-87
2021/12/10 01:30:13;;;;;;;3.70;1.60;;;7.00;80.40;7.10;95056.00;;;;5078941;28;20224;-85
2021/12/10 01:32:47;;;;;;;2.80;1.63;;;7.00;80.50;7.10;95048.00;;;;5075801;28;20307;-85
2021/12/10 01:35:21;;;;;;;2.60;1.50;;;7.00;80.60;7.20;95042.00;;;;5089255;28;20274;-86
2021/12/10 01:37:51;;;;;;;1.97;1.30;;;7.00;80.60;7.20;95039.00;;;;5107084;28;20214;-86
2021/12/10 01:40:21;;;;;;;1.60;1.43;;;7.00;80.30;7.20;95040.00;;;;5107714;28;20195;-86
2021/12/10 01:42:52;;;;;;;3.63;1.60;;;7.00;80.10;7.20;95036.00;;;;5116278;28;20225;-86
2021/12/10 01:45:23;;;;;;;2.67;1.50;;;7.00;80.20;7.20;95029.00;;;;5102638;28;20191;-85
2021/12/10 01:48:03;;;;;;;5.07;1.50;;;7.00;80.40;7.20;95025.00;;;;5095650;28;20654;-86
2021/12/10 01:50:32;;;;;;;2.40;1.20;;;7.00;79.90;7.20;95022.00;;;;5083810;28;20198;-86
2021/12/10 01:53:06;;;;;;;2.80;1.57;;;7.00;80.90;7.20;95014.00;;;;5092151;28;20226;-85
2021/12/10 01:55:37;;;;;;;2.77;1.20;;;7.00;80.40;7.20;95018.00;;;;5093182;28;20294;-85
2021/12/10 01:58:07;;;;;;;4.00;1.57;;;7.00;80.50;7.20;95002.00;;;;5079533;28;20318;-86
2021/12/10 02:00:40;;;;;;;8.13;1.60;;;7.00;80.50;7.20;95001.00;;;;5092384;28;20270;-87
2021/12/10 02:03:07;;;;;;;8.20;1.70;;;7.10;80.50;7.20;94990.00;;;;5092295;28;20270;-85
2021/12/10 02:05:35;;;;;;;3.47;1.30;;;7.10;80.60;7.20;94994.00;;;;5097488;28;20249;-86
2021/12/10 02:08:05;;;;;;;3.80;1.53;;;7.00;80.50;7.20;94978.00;;;;5100908;28;20797;-86
2021/12/10 02:10:34;;;;;;;4.97;1.40;;;7.10;80.50;7.20;94984.00;;;;5110426;28;20280;-86
2021/12/10 02:13:02;;;;;;;2.07;1.50;;;7.10;80.60;7.20;94974.00;;;;5115644;28;20263;-86
2021/12/10 02:15:29;;;;;;;3.33;1.70;;;7.10;81.20;7.20;94955.00;;;;5096577;28;20286;-86
2021/12/10 02:17:59;;;;;;;8.57;1.40;;;7.10;80.50;7.20;94967.00;;;;5090015;28;20224;-86
2021/12/10 02:20:33;;;;;;;2.20;1.40;;;7.10;80.60;7.20;94955.00;;;;5085831;28;20191;-86
2021/12/10 02:23:06;;;;;;;2.87;1.70;;;7.10;80.50;7.20;94955.00;;;;5095988;28;20183;-87
2021/12/10 02:25:37;;;;;;;3.20;1.30;;;7.00;80.30;7.20;94948.00;;;;5092967;28;20219;-86
2021/12/10 02:28:07;;;;;;;1.87;1.43;;;7.10;80.10;7.20;94938.00;;;;5114191;28;20210;-86
2021/12/10 02:30:36;;;;;;;1.87;1.20;;;7.00;80.10;7.20;94929.00;;;;5105443;28;20211;-87
2021/12/10 02:33:04;;;;;;;2.23;1.23;;;7.00;79.90;7.20;94927.00;;;;5095036;28;20207;-86
2021/12/10 02:35:31;;;;;;;4.23;1.23;;;7.00;79.70;7.10;94913.00;;;;5100006;28;20293;-86
2021/12/10 02:37:59;;;;;;;2.93;1.37;;;7.00;79.80;7.10;94909.00;;;;5098465;28;20301;-86
2021/12/10 02:40:30;;;;;;;1.90;1.27;;;7.00;79.70;7.10;94898.00;;;;5091288;28;20280;-86
2021/12/10 02:43:04;;;;;;;2.73;1.43;;;7.00;79.70;7.10;94908.00;;;;5107231;23;20223;-85
2021/12/10 02:45:32;;;;;;;2.10;1.47;;;6.90;79.70;7.00;94903.00;;;;5093547;28;20272;-84
2021/12/10 02:48:00;;;;;;;3.13;1.10;;;6.90;80.00;7.10;94889.00;;;;5078565;28;20216;-85
2021/12/10 02:50:31;;;;;;;2.30;1.23;;;6.90;80.10;7.00;94883.00;;;;5069519;28;20198;-85
2021/12/10 02:53:00;;;;;;;6.90;1.47;;;6.90;80.10;7.00;94881.00;;;;5053477;28;20616;-85
2021/12/10 02:55:31;;;;;;;2.13;1.20;;;6.90;80.00;7.00;94866.00;;;;5060210;28;20287;-85
2021/12/10 02:58:04;;;;;;;1.50;1.10;;;6.90;80.10;7.00;94871.00;;;;5062261;28;20225;-85
2021/12/10 03:00:42;;;;;;;1.87;1.60;;;6.90;80.10;7.00;94869.00;;;;5064924;28;20617;-85
2021/12/10 03:03:09;;;;;;;3.57;1.40;;;6.90;80.30;7.00;94859.00;;;;5053544;28;20623;-85
2021/12/10 03:05:37;;;;;;;2.47;1.13;;;6.90;80.50;6.90;94855.00;;;;5067331;28;20291;-85
2021/12/10 03:08:05;;;;;;;2.30;1.20;;;6.80;80.30;6.90;94848.00;;;;5073732;28;20594;-85
2021/12/10 03:10:35;;;;;;;2.33;1.13;;;6.80;80.00;6.90;94845.00;;;;5072521;28;20226;-85
2021/12/10 03:13:03;;;;;;;6.03;1.50;;;6.80;79.90;6.90;94844.00;;;;5053979;28;20669;-85
2021/12/10 03:15:32;;;;;;;2.80;1.37;;;6.80;79.90;6.80;94839.00;;;;5058857;28;20275;-85
2021/12/10 03:18:03;;;;;;;4.93;1.50;;;6.70;79.80;6.80;94842.00;;;;5053314;28;20684;-85
2021/12/10 03:20:32;;;;;;;5.60;1.20;;;6.70;79.70;6.70;94842.00;;;;5059975;28;20188;-85
2021/12/10 03:23:01;;;;;;;2.33;1.20;;;6.70;79.70;6.70;94840.00;;;;5053732;28;20291;-85
2021/12/10 03:25:28;;;;;;;1.67;0.90;;;6.60;79.60;6.60;94840.00;;;;5066481;28;20242;-85
2021/12/10 03:27:58;;;;;;;2.07;1.03;;;6.60;79.50;6.60;94843.00;;;;5073443;28;20219;-85
2021/12/10 03:30:30;;;;;;;7.03;1.50;;;6.50;79.30;6.50;94835.00;;;;5073734;28;20260;-85
2021/12/10 03:32:58;;;;;;;4.03;1.20;;;6.60;79.40;6.50;94830.00;;;;5074807;28;20230;-85
2021/12/10 03:35:31;;;;;;;1.40;1.00;;;6.40;79.60;6.50;94831.00;;;;5073621;28;20253;-85
2021/12/10 03:38:02;;;;;;;3.50;1.07;;;6.40;79.70;6.40;94829.00;;;;5072793;28;20230;-84
2021/12/10 03:40:30;;;;;;;1.90;1.03;;;6.40;79.80;6.40;94821.00;;;;5069562;28;20259;-84
2021/12/10 03:42:59;;;;;;;3.90;1.13;;;6.40;79.80;6.40;94820.00;;;;5051698;28;20306;-85
2021/12/10 03:45:32;;;;;;;2.23;0.80;;;6.30;79.80;6.40;94818.00;;;;5060566;28;20287;-85
2021/12/10 03:48:01;;;;;;;3.90;1.00;;;6.30;79.70;6.30;94807.00;;;;5071654;28;20599;-85
2021/12/10 03:50:32;;;;;;;2.13;1.10;;;6.20;79.80;6.30;94795.00;;;;5071115;28;20659;-85
2021/12/10 03:53:00;;;;;;;3.07;1.03;;;6.20;79.60;6.20;94791.00;;;;5052279;28;20184;-84
2021/12/10 03:55:29;;;;;;;3.23;1.50;;;6.20;79.40;6.10;94784.00;;;;5066919;28;20204;-85
2021/12/10 03:58:00;;;;;;;1.77;1.10;;;6.10;79.10;6.10;94786.00;;;;5064926;28;20270;-84
2021/12/10 04:00:36;;;;;;;1.10;1.00;;;6.00;79.00;6.00;94784.00;;;;5059888;28;20189;-84
2021/12/10 04:03:06;;;;;;;2.50;1.10;;;6.00;79.00;5.90;94773.00;;;;5051673;28;20290;-84
2021/12/10 04:05:34;;;;;;;3.70;1.30;;;5.90;79.10;5.90;94773.00;;;;5062694;28;20207;-84
2021/12/10 04:08:01;;;;;;;1.00;0.90;;;5.80;79.10;5.80;94770.00;;;;5071089;28;20212;-84
2021/12/10 04:10:29;;;;;;;2.80;1.30;;;5.80;79.10;5.70;94767.00;;;;5069237;28;20279;-85
2021/12/10 04:13:00;;;;;;;0.93;0.83;;;5.70;79.00;5.70;94758.00;;;;5061439;28;20196;-85
2021/12/10 04:15:28;;;;;;;1.17;1.07;;;5.70;79.00;5.60;94762.00;;;;5060666;28;20193;-85
2021/12/10 04:17:58;;;;;;;3.30;1.20;;;5.60;79.10;5.50;94760.00;;;;5051549;28;20243;-85
2021/12/10 04:20:32;;;;;;;1.63;0.97;;;5.60;79.10;5.50;94743.00;;;;5051452;28;20719;-85
2021/12/10 04:23:07;;;;;;;4.20;1.17;;;5.50;79.00;5.40;94742.00;;;;5056215;28;20195;-85
2021/12/10 04:25:34;;;;;;;4.80;1.27;;;5.40;78.80;5.40;94743.00;;;;5070356;28;20289;-85
2021/12/10 04:28:08;;;;;;;7.33;1.60;;;5.40;78.80;5.30;94734.00;;;;5071047;28;20240;-85
2021/12/10 04:30:40;;;;;;;2.37;1.20;;;5.30;78.80;5.20;94733.00;;;;5071435;28;20181;-85
2021/12/10 04:33:09;;;;;;;2.60;1.30;;;5.30;78.90;5.10;94739.00;;;;5066745;28;20577;-84
2021/12/10 04:35:37;;;;;;;7.67;1.33;;;5.20;78.90;5.10;94731.00;;;;5057327;28;20259;-85
2021/12/10 04:38:05;;;;;;;2.70;1.10;;;5.10;79.00;5.00;94730.00;;;;5065350;28;20294;-85
2021/12/10 04:40:32;;;;;;;1.47;1.20;;;5.00;78.90;5.00;94723.00;;;;5073675;28;20198;-85
2021/12/10 04:43:02;;;;;;;2.17;1.07;;;5.00;79.10;4.90;94726.00;;;;5073103;28;20287;-85
2021/12/10 04:45:29;;;;;;;1.73;1.30;;;4.90;79.20;4.80;94724.00;;;;5063772;28;20287;-85
2021/12/10 04:47:57;;;;;;;0.83;0.83;;;4.90;79.30;4.80;94717.00;;;;5066904;28;20216;-85
2021/12/10 04:50:27;;;;;;;2.80;1.53;;;4.90;79.40;4.80;94715.00;;;;5055847;28;20216;-85
2021/12/10 04:52:56;;;;;;;1.10;0.90;;;4.80;79.60;4.70;94712.00;;;;5071469;28;20184;-84
2021/12/10 04:55:24;;;;;;;1.40;0.90;;;4.70;79.70;4.70;94700.00;;;;5070546;28;20655;-85
2021/12/10 04:57:52;;;;;;;1.43;1.10;;;4.70;79.80;4.60;94694.00;;;;5075421;28;20247;-85
2021/12/10 05:00:26;;;;;;;6.67;1.20;;;4.70;79.70;4.60;94689.00;;;;5075717;28;20224;-85
2021/12/10 05:02:56;;;;;;;2.67;1.10;;;4.70;79.60;4.60;94691.00;;;;5074558;28;20200;-85
2021/12/10 05:05:25;;;;;;;1.30;1.20;;;4.60;79.50;4.60;94688.00;;;;5075396;28;20227;-85
2021/12/10 05:07:53;;;;;;;5.17;1.20;;;4.60;79.60;4.50;94684.00;;;;5075859;28;20244;-86
2021/12/10 05:10:21;;;;;;;3.73;1.50;;;4.60;79.50;4.50;94689.00;;;;5075993;28;20192;-85
2021/12/10 05:12:49;;;;;;;3.50;1.60;;;4.50;79.50;4.40;94681.00;;;;5058912;28;20216;-85
2021/12/10 05:15:23;;;;;;;3.70;1.63;;;4.50;79.50;4.40;94671.00;;;;5056395;28;20188;-85
2021/12/10 05:17:52;;;;;;;3.30;1.20;;;4.40;79.40;4.40;94670.00;;;;5056033;28;20216;-85
2021/12/10 05:20:24;;;;;;;3.10;1.13;;;4.40;79.40;4.30;94657.00;;;;5065614;28;20282;-86
2021/12/10 05:22:53;;;;;;;3.87;1.33;;;4.40;79.50;4.30;94660.00;;;;5074772;28;20278;-85
2021/12/10 05:25:21;;;;;;;1.37;1.17;;;4.30;80.20;4.20;94656.00;;;;5067601;28;20250;-85
2021/12/10 05:27:52;;;;;;;1.60;1.50;;;4.30;79.50;4.20;94646.00;;;;5077116;28;20215;-84
2021/12/10 05:30:27;;;;;;;1.40;1.17;;;4.20;79.50;4.20;94646.00;;;;5077760;28;20195;-85
2021/12/10 05:32:55;;;;;;;1.67;1.30;;;4.20;79.60;4.10;94637.00;;;;5077365;28;20210;-84
2021/12/10 05:35:22;;;;;;;1.30;1.10;;;4.20;79.70;4.10;94626.00;;;;5073653;28;20713;-84
2021/12/10 05:37:49;;;;;;;3.63;1.47;;;4.10;79.70;4.00;94634.00;;;;5057101;28;20209;-85
2021/12/10 05:40:18;;;;;;;2.77;1.53;;;4.10;79.60;4.00;94632.00;;;;5068915;28;20278;-84
2021/12/10 05:42:47;;;;;;;2.07;1.63;;;4.10;79.70;4.00;94647.00;;;;5077308;28;20235;-84
2021/12/10 05:45:16;;;;;;;9.03;2.07;;;4.00;79.80;4.00;94635.00;;;;5076141;28;20188;-85
2021/12/10 05:47:46;;;;;;;3.33;1.60;;;4.00;79.80;3.90;94648.00;;;;5073787;28;20662;-85
2021/12/10 05:50:20;;;;;;;2.70;2.40;;;4.00;79.80;3.90;94633.00;;;;5068306;28;20226;-84
2021/12/10 05:52:48;;;;;;;5.30;2.60;;;4.00;79.70;3.90;94629.00;;;;5068245;28;20744;-84
2021/12/10 05:55:17;;;;;;;7.70;2.63;;;3.90;79.80;3.90;94619.00;;;;5081657;28;20283;-85
2021/12/10 05:57:44;;;;;;;3.47;2.20;;;3.90;79.90;3.90;94621.00;;;;5061749;28;20267;-84
2021/12/10 06:00:17;;;;;;;2.30;1.90;;;3.90;79.80;3.80;94604.00;;;;5068565;28;21363;-86
2021/12/10 06:02:48;;;;;;;2.60;2.40;;;3.90;79.90;3.80;94608.00;;;;5074404;28;20227;-85
2021/12/10 06:05:16;;;;;;;4.23;2.60;;;3.90;79.90;3.80;94603.00;;;;5075810;28;20470;-84
2021/12/10 06:07:44;;;;;;;2.70;2.23;;;3.80;79.90;3.80;94595.00;;;;5066272;28;20454;-84
2021/12/10 06:10:14;;;;;;;3.00;2.33;;;3.80;79.90;3.70;94589.00;;;;5078676;28;20782;-84
2021/12/10 06:12:43;;;;;;;3.17;2.40;;;3.80;80.00;3.70;94591.00;;;;5072230;28;20439;-84
2021/12/10 06:15:16;;;;;;;2.40;2.20;;;3.80;80.10;3.70;94590.00;;;;5077858;28;20521;-84
2021/12/10 06:17:44;;;;;;;5.97;2.77;;;3.80;80.00;3.70;94582.00;;;;5066552;28;20883;-84
2021/12/10 06:20:18;;;;;;;3.17;2.50;;;3.90;80.00;3.70;94585.00;;;;5078520;28;20231;-84
2021/12/10 06:22:46;;;;;;;4.07;2.50;;;3.70;80.00;3.70;94590.00;;;;5064857;28;20212;-84
2021/12/10 06:25:13;;;;;;;3.53;2.87;;;3.70;79.90;3.60;94584.00;;;;5062709;28;20930;-85
2021/12/10 06:27:44;;;;;;;2.80;2.50;;;3.70;80.00;3.60;94589.00;;;;5077622;28;20494;-83
2021/12/10 06:30:16;;;;;;;2.60;2.37;;;3.70;79.90;3.60;94576.00;;;;5068970;28;21013;-84
2021/12/10 06:32:47;;;;;;;2.50;2.30;;;3.70;79.90;3.60;94575.00;;;;5060185;28;20486;-84
2021/12/10 06:35:17;;;;;;;4.60;2.40;;;3.60;79.70;3.50;94569.00;;;;5069639;28;20462;-85
2021/12/10 06:37:45;;;;;;;3.83;2.70;;;3.60;79.80;3.50;94564.00;;;;5070370;28;20881;-84
2021/12/10 06:40:17;;;;;;;3.00;2.33;;;3.60;79.90;3.50;94551.00;;;;5075695;28;20474;-84
2021/12/10 06:42:45;;;;;;;3.67;2.50;;;3.60;79.90;3.50;94546.00;;;;5078090;28;20507;-84
2021/12/10 06:45:16;;;;;;;4.33;2.90;;;3.50;79.90;3.50;94538.00;;;;5077525;28;20438;-84
2021/12/10 06:47:47;;;;;;;5.97;2.83;;;3.50;80.00;3.40;94528.00;;;;5081523;28;20486;-85
2021/12/10 06:50:20;;;;;;;6.63;2.57;;;3.50;80.10;3.40;94528.00;;;;5078455;28;20557;-84
2021/12/10 06:56:10;;;;;;;;;;;;;;;;;;;;;
2021/12/10 06:59:12;;;;;;;3.93;2.37;;;3.40;80.10;3.40;94512.00;;;;5072573;28;20291;-84
2021/12/10 07:02:17;;;;;;;3.07;2.30;;;3.40;80.10;3.30;94504.00;;;;5081283;28;20457;-83
2021/12/10 07:04:49;;;;;;;3.03;2.10;;;3.40;80.00;3.30;94503.00;;;;5068087;28;20438;-84
2021/12/10 07:08:06;;;;;;;2.30;1.90;;;3.40;80.20;3.30;94500.00;;;;5078531;28;20805;-84
2021/12/10 07:10:36;;;;;;;2.87;2.20;;;3.40;80.60;3.30;94502.00;;;;5075673;28;20453;-86
2021/12/10 07:13:06;;;;;;;2.93;1.87;;;3.40;80.20;3.30;94496.00;;;;5072982;28;20438;-86
2021/12/10 07:15:34;;;;;;;5.43;2.17;;;3.40;80.30;3.30;94495.00;;;;5059983;28;20484;-85
2021/12/10 07:18:02;;;;;;;2.30;2.00;;;3.90;80.70;3.30;94483.00;;;;5073114;28;20216;-86
2021/12/10 07:20:29;;;;;;;4.60;2.27;;;4.10;81.00;3.40;94476.00;;;;5062811;28;20511;-86
2021/12/10 07:22:58;;;;;;;4.20;2.40;;;3.40;81.20;3.40;94472.00;;;;5068679;28;20467;-86
2021/12/10 07:25:25;;;;;;;3.63;1.97;;;3.50;80.60;3.40;94470.00;;;;5070052;28;20499;-86
2021/12/10 07:27:54;;;;;;;3.63;2.10;;;3.40;80.60;3.40;94474.00;;;;5071646;28;20829;-87
2021/12/10 07:30:25;;;;;;;3.13;2.03;;;3.40;80.70;3.40;94469.00;;;;5072144;28;20961;-87
2021/12/10 07:32:52;;;;;;;3.30;2.10;;;3.40;80.60;3.40;94479.00;;;;5071824;28;20430;-86
2021/12/10 07:35:21;;;;;;;6.50;2.60;;;3.40;80.70;3.40;94472.00;;;;5066945;28;20265;-86
2021/12/10 07:37:48;;;;;;;2.33;2.13;;;3.30;80.70;3.40;94471.00;;;;5057605;28;20483;-86
2021/12/10 07:40:23;;;;;;;2.67;2.30;;;3.40;80.80;3.40;94470.00;;;;5067160;28;20561;-86
2021/12/10 07:42:51;;;;;;;3.63;2.27;;;3.40;80.80;3.40;94463.00;;;;5066067;28;20286;-86
2021/12/10 07:45:21;;;;;;;3.37;2.77;;;3.30;80.80;3.40;94471.00;;;;5063292;28;21017;-86
2021/12/10 07:47:51;;;;;;;2.60;2.40;;;3.40;80.90;3.40;94461.00;;;;5042735;28;20933;-85
2021/12/10 07:50:23;;;;;;;3.70;2.57;;;3.40;80.90;3.50;94458.00;;;;5041189;28;20618;-86
2021/12/10 07:52:54;;;;;;;3.90;2.53;;;3.40;81.00;3.50;94464.00;;;;5052940;28;20455;-87
2021/12/10 07:55:26;;;;;;;3.10;2.70;;;3.40;81.10;3.50;94456.00;;;;5055453;28;20457;-89
2021/12/10 07:58:01;;;;;;;4.53;2.87;;;3.40;81.10;3.50;94453.00;;;;5051870;28;20957;-86
2021/12/10 08:00:33;;;;;;;3.73;2.77;;;3.40;81.00;3.50;94454.00;;;;5068618;28;20485;-86
2021/12/10 08:03:01;;;;;;;4.40;3.00;;;3.40;81.10;3.50;94450.00;;;;5049836;28;20978;-86
2021/12/10 08:05:30;;;;;;;3.20;3.00;;;3.50;81.30;3.60;94445.00;;;;5068062;28;20446;-86
2021/12/10 08:07:58;;;;;;;4.03;3.00;;;3.50;81.40;3.60;94446.00;;;;5060558;28;20554;-86
2021/12/10 08:10:29;;;;;;;5.17;3.17;;;3.50;81.40;3.60;94436.00;;;;5056320;28;20233;-86
2021/12/10 08:12:56;;;;;;;4.93;2.77;;;3.50;81.50;3.70;94429.00;;;;5057470;28;20673;-86
2021/12/10 08:15:24;;;;;;;3.57;3.27;;;3.60;81.70;3.70;94423.00;;;;5072919;28;20220;-85
2021/12/10 08:17:51;;;;;;;4.03;3.20;;;3.60;81.70;3.70;94433.00;;;;5074535;28;20473;-85
2021/12/10 08:20:22;;;;;;;3.47;3.17;;;3.60;81.70;3.70;94438.00;;;;5072515;28;20477;-84
2021/12/10 08:23:00;;;;;;;3.40;3.10;;;3.70;81.80;3.80;94428.00;;;;5069606;28;20199;-88
2021/12/10 08:25:30;;;;;;;3.50;3.20;;;3.70;81.90;3.80;94441.00;;;;5073150;28;20706;-86
2021/12/10 08:28:24;;;;;;;4.10;3.13;;;3.70;81.90;3.80;94422.00;;;;5067309;28;20496;-86
2021/12/10 08:30:54;;;;;;;6.17;3.17;;;3.80;82.10;3.90;94418.00;;;;5065856;28;20443;-86
2021/12/10 08:33:23;;;;;;;4.60;3.00;;;3.80;82.20;4.00;94424.00;;;;5065632;28;20200;-86
2021/12/10 08:36:01;;;;;;;4.77;3.33;;;3.90;82.10;4.00;94422.00;;;;5075612;28;20848;-86
2021/12/10 08:38:31;;;;;;;4.73;3.43;;;3.90;82.20;4.00;94412.00;;;;5074764;28;20216;-84
2021/12/10 08:41:05;;;;;;;3.50;2.83;;;4.00;82.10;4.10;94414.00;;;;5064347;28;20220;-86
2021/12/10 08:43:33;;;;;;;4.17;2.87;;;4.00;81.90;4.10;94410.00;;;;5086078;22;20696;-87
2021/12/10 08:46:03;;;;;;;3.30;3.00;;;4.50;82.10;4.20;94410.00;;;;5096526;28;20723;-84
2021/12/10 08:48:32;;;;;;;3.37;3.07;;;4.10;81.80;4.20;94407.00;;;;5099010;28;20306;-86
2021/12/10 08:51:08;;;;;;;2.87;2.60;;;4.20;82.60;4.20;94406.00;;;;5097383;28;20238;-86
2021/12/10 08:53:42;;;;;;;3.63;2.60;;;4.10;81.80;4.30;94396.00;;;;5099060;28;20222;-86
2021/12/10 08:56:18;;;;;;;4.30;3.10;;;4.10;81.90;4.30;94396.00;;;;5099118;28;20679;-87
2021/12/10 08:58:45;;;;;;;5.90;2.67;;;4.20;81.90;4.40;94390.00;;;;5098054;28;20230;-83
2021/12/10 09:01:18;;;;;;;2.67;2.47;;;4.20;82.00;4.40;94390.00;;;;5098372;28;20576;-86
2021/12/10 09:03:49;;;;;;;2.63;2.33;;;4.30;82.70;4.40;94381.00;;;;5098244;28;20652;-84
2021/12/10 09:06:21;;;;;;;2.73;2.30;;;4.40;82.00;4.50;94377.00;;;;5098584;27;20251;-86
2021/12/10 09:08:50;;;;;;;2.10;2.00;;;4.30;81.90;4.50;94381.00;;;;5097928;28;20211;-85
2021/12/10 09:11:19;;;;;;;2.90;1.90;;;4.40;81.80;4.50;94380.00;;;;5097455;28;20195;-85
2021/12/10 09:13:50;;;;;;;2.20;2.00;;;4.40;81.80;4.50;94384.00;;;;5096996;28;20190;-86
2021/12/10 09:16:27;;;;;;;6.20;2.90;;;4.80;81.90;4.50;94373.00;;;;5096205;28;20243;-85
2021/12/10 09:19:00;;;;;;;2.30;1.93;;;4.50;81.70;4.60;94373.00;;;;5096732;28;20563;-86
2021/12/10 09:21:28;;;;;;;2.60;2.20;;;4.50;81.70;4.60;94370.00;;;;5097062;28;20227;-85
2021/12/10 09:24:03;;;;;;;2.00;1.90;;;4.50;81.80;4.60;94360.00;;;;5096679;28;20222;-86
2021/12/10 09:26:34;;;;;;;2.17;1.70;;;4.60;81.70;4.60;94361.00;;;;5096783;28;20215;-86
2021/12/10 09:29:08;;;;;;;2.13;2.00;;;4.60;81.70;4.70;94359.00;;;;5096083;28;20231;-85
2021/12/10 09:31:39;;;;;;;1.97;1.67;;;4.70;82.60;4.70;94352.00;;;;5095907;28;20258;-84
2021/12/10 09:34:07;;;;;;;1.80;1.70;;;4.70;81.50;4.80;94354.00;;;;5095097;28;20210;-84
2021/12/10 09:36:34;;;;;;;2.17;1.97;;;4.80;81.90;4.90;94359.00;;;;5095764;28;20578;-86
2021/12/10 09:39:05;;;;;;;3.40;1.90;;;4.80;81.90;5.00;94352.00;;;;5095997;28;20278;-85
2021/12/10 09:41:35;;;;;;;1.67;1.50;;;4.90;82.10;5.10;94356.00;;;;5096213;28;20227;-87
2021/12/10 09:44:03;;;;;;;3.77;1.63;;;5.00;82.60;5.20;94354.00;;;;5096243;28;20233;-87
2021/12/10 09:46:31;;;;;;;1.37;1.37;;;5.20;82.90;5.40;94353.00;;;;5096583;28;20234;-86
2021/12/10 09:48:58;;;;;;;1.70;1.60;;;5.40;83.40;5.50;94353.00;;;;5096809;28;20199;-88
2021/12/10 09:51:30;;;;;;;1.57;1.47;;;5.70;83.90;5.70;94347.00;;;;5096147;28;20618;-87
2021/12/10 09:54:02;;;;;;;1.73;1.63;;;6.10;84.40;6.00;94341.00;;;;5096381;28;20199;-87
2021/12/10 09:56:30;;;;;;;1.40;1.30;;;6.60;84.70;6.20;94333.00;;;;5097281;28;20233;-87
2021/12/10 09:59:00;;;;;;;1.53;1.43;;;7.10;84.40;6.40;94335.00;;;;5096688;28;20279;-87
2021/12/10 10:01:32;;;;;;;1.33;1.23;;;7.60;83.50;6.70;94333.00;;;;5096661;28;20273;-87
2021/12/10 10:04:02;;;;;;;1.47;1.37;;;8.00;82.20;6.90;94326.00;;;;5096214;28;20203;-86
2021/12/10 10:06:31;;;;;;;1.67;1.57;;;8.80;81.80;7.10;94329.00;;;;5096020;28;20195;-86
2021/12/10 10:08:59;;;;;;;5.23;1.80;;;8.80;80.60;7.30;94317.00;;;;5096447;28;20621;-86
2021/12/10 10:11:33;;;;;;;1.77;1.57;;;9.10;80.00;7.40;94320.00;;;;5095935;28;20278;-87
2021/12/10 10:14:04;;;;;;;1.60;1.40;;;9.20;78.00;7.60;94323.00;;;;5096251;28;20207;-86
2021/12/10 10:16:39;;;;;;;1.83;1.67;;;9.30;77.10;7.60;94314.00;;;;5096149;28;20275;-87
2021/12/10 10:19:06;;;;;;;1.47;1.37;;;9.40;76.40;7.70;94309.00;;;;5095488;28;20693;-87
2021/12/10 10:21:41;;;;;;;1.40;1.30;;;9.30;75.80;7.80;94304.00;;;;5095734;28;20227;-86
2021/12/10 10:24:08;;;;;;;1.40;1.30;;;9.20;74.70;7.70;94298.00;;;;5095340;28;20252;-86
2021/12/10 10:26:41;;;;;;;1.40;1.30;;;9.10;74.70;7.70;94297.00;;;;5095424;28;20211;-86
2021/12/10 10:29:13;;;;;;;2.50;1.30;;;8.90;74.20;7.70;94286.00;;;;5095499;28;20199;-86
2021/12/10 10:31:46;;;;;;;1.50;1.40;;;8.70;74.10;7.70;94279.00;;;;5095056;28;20257;-86
2021/12/10 10:34:14;;;;;;;1.60;1.30;;;8.50;74.20;7.70;94265.00;;;;5095503;28;20204;-86
2021/12/10 10:36:43;;;;;;;1.43;1.33;;;9.10;75.30;7.70;94266.00;;;;5095622;28;20215;-86
2021/12/10 10:39:16;;;;;;;3.17;1.50;;;8.30;74.90;7.70;94258.00;;;;5094722;28;20294;-85
2021/12/10 10:41:49;;;;;;;1.60;1.50;;;8.20;75.00;7.70;94248.00;;;;5091754;28;20191;-87
2021/12/10 10:44:19;;;;;;;2.03;1.53;;;8.10;75.20;7.70;94240.00;;;;5072624;28;20211;-86
2021/12/10 10:46:49;;;;;;;2.33;1.30;;;8.00;75.50;7.70;94236.00;;;;5088236;28;20211;-87
2021/12/10 10:49:34;;;;;;;1.23;1.20;;;7.90;76.00;7.70;94212.00;;;;5092643;28;20286;-87
2021/12/10 10:52:18;;;;;;;1.30;1.20;;;7.80;75.90;7.70;94199.00;;;;5088310;28;20215;-86
2021/12/10 10:54:47;;;;;;;1.73;1.40;;;7.80;75.80;7.70;94194.00;;;;5080111;28;20199;-85
2021/12/10 10:57:24;;;;;;;1.73;1.57;;;7.70;76.40;7.70;94195.00;;;;5090758;28;20273;-86
2021/12/10 10:59:58;;;;;;;1.43;1.33;;;7.70;76.40;7.70;94210.00;;;;5089646;28;20223;-86
2021/12/10 11:02:38;;;;;;;1.40;1.30;;;7.60;75.50;7.70;94208.00;;;;5073242;28;20196;-87
2021/12/10 11:05:11;;;;;;;1.40;1.30;;;7.60;77.00;7.70;94196.00;;;;5084896;28;20223;-86
2021/12/10 11:07:47;;;;;;;1.43;1.33;;;7.60;76.10;7.70;94204.00;;;;5077269;28;20224;-87
2021/12/10 11:10:25;;;;;;;1.50;1.40;;;7.60;75.90;7.60;94205.00;;;;5081952;28;20199;-86
2021/12/10 11:12:53;;;;;;;1.83;1.60;;;7.50;76.10;7.60;94212.00;;;;5080883;28;20188;-86
2021/12/10 11:15:21;;;;;;;1.40;1.30;;;7.50;76.10;7.60;94216.00;;;;5072741;28;20287;-87
2021/12/10 11:17:52;;;;;;;1.97;1.80;;;7.50;76.00;7.50;94219.00;;;;5090593;28;20219;-87
2021/12/10 11:20:25;;;;;;;2.20;1.80;;;7.50;75.80;7.50;94216.00;;;;5087134;28;20571;-86
2021/12/10 11:22:56;;;;;;;1.87;1.77;;;7.40;75.50;7.40;94217.00;;;;5072577;28;20207;-86
2021/12/10 11:25:31;;;;;;;2.23;1.73;;;7.30;76.70;7.50;94220.00;;;;5078773;28;20352;-86
2021/12/10 11:28:07;;;;;;;2.23;2.00;;;7.30;76.20;7.50;94215.00;;;;5085501;28;20215;-87
2021/12/10 11:30:40;;;;;;;1.83;1.70;;;7.30;76.00;7.50;94210.00;;;;5081560;28;20573;-86
2021/12/10 11:33:12;;;;;;;2.43;1.70;;;7.30;76.30;7.60;94208.00;;;;5087766;28;20199;-86
2021/12/10 11:35:45;;;;;;;2.03;1.70;;;7.30;76.10;7.60;94204.00;;;;5093447;28;20225;-86